Time;durP1;ratioP1;P1;durP2;ratioP2;P2;SDS_P1;SDS_P2;PMS_P1;PMS_P2;Temp;Humidity;BMP_temperature;BMP_pressure;BME280_temperature;BME280_humidity;BME280_pressure;Samples;Min_cycle;Max_cycle;Signal;HPM_P1;HPM_P2
2023/08/22 00:02:19;;;;;;;6.63;6.03;;;;;;;18.79;97.89;101247.16;6054439;23;20409;-68
2023/08/22 00:04:45;;;;;;;6.50;6.10;;;;;;;19.29;97.84;101319.50;6061250;23;20086;-68
2023/08/22 00:07:12;;;;;;;8.18;6.57;;;;;;;19.56;97.36;101339.56;6061147;23;20010;-68
2023/08/22 00:09:38;;;;;;;6.40;6.00;;;;;;;19.48;96.75;101326.88;6064051;23;20032;-68
2023/08/22 00:12:05;;;;;;;7.13;6.18;;;;;;;19.55;96.83;101332.56;6085628;23;20029;-68
2023/08/22 00:14:32;;;;;;;11.50;6.57;;;;;;;19.44;97.13;101336.91;6082622;23;20404;-68
2023/08/22 00:16:58;;;;;;;7.05;6.32;;;;;;;19.43;97.89;101345.03;6084282;23;20025;-68
2023/08/22 00:19:25;;;;;;;7.82;6.10;;;;;;;19.28;98.13;101328.44;6067091;23;20032;-70
2023/08/22 00:21:55;;;;;;;6.60;6.20;;;;;;;19.30;98.66;101346.00;6029446;23;20022;-69
2023/08/22 00:24:23;;;;;;;6.63;6.22;;;;;;;19.06;99.25;101324.84;6074769;23;20695;-68
2023/08/22 00:26:50;;;;;;;6.53;6.13;;;;;;;19.27;99.75;101358.69;6063771;23;20056;-69
2023/08/22 00:29:16;;;;;;;6.53;5.97;;;;;;;19.12;100.00;101340.31;6088259;23;20037;-67
2023/08/22 00:31:43;;;;;;;6.30;5.90;;;;;;;18.79;100.00;101295.03;6085252;23;20097;-68
2023/08/22 00:34:09;;;;;;;6.78;6.28;;;;;;;19.16;100.00;101358.69;6081580;23;20017;-69
2023/08/22 00:36:35;;;;;;;8.50;6.35;;;;;;;19.11;100.00;101359.88;6057197;23;20045;-68
2023/08/22 00:39:02;;;;;;;6.85;6.32;;;;;;;19.06;100.00;101362.09;6069525;23;20512;-67
2023/08/22 00:41:29;;;;;;;6.50;6.10;;;;;;;18.63;100.00;101298.00;6004491;23;20115;-68
2023/08/22 00:43:58;;;;;;;7.03;6.43;;;;;;;18.98;100.00;101368.94;6035280;23;20019;-68
2023/08/22 00:46:28;;;;;;;7.15;6.55;;;;;;;18.92;100.00;101360.47;6030204;23;20026;-68
2023/08/22 00:48:55;;;;;;;7.35;6.85;;;;;;;18.66;100.00;101350.94;6051296;23;20145;-68
2023/08/22 00:51:22;;;;;;;6.82;6.35;;;;;;;18.86;100.00;101382.22;6054016;23;20574;-68
2023/08/22 00:53:48;;;;;;;6.72;6.13;;;;;;;18.63;100.00;101349.38;6057905;23;20022;-68
2023/08/22 00:56:15;;;;;;;7.03;6.32;;;;;;;18.69;100.00;101353.38;6060282;23;20050;-68
2023/08/22 00:58:42;;;;;;;6.85;6.35;;;;;;;18.79;100.00;101380.13;6054731;23;20028;-68
2023/08/22 01:01:09;;;;;;;7.40;6.80;;;;;;;18.51;100.00;101329.88;6006492;23;20038;-68
2023/08/22 01:03:35;;;;;;;7.38;6.45;;;;;;;18.74;100.00;101367.16;6061268;23;20022;-68
2023/08/22 01:06:10;;;;;;;11.63;7.18;;;;;;;18.65;100.00;101360.72;6034804;23;20042;-67
2023/08/22 01:08:39;;;;;;;7.00;6.50;;;;;;;18.65;100.00;101368.72;6081714;23;20026;-68
2023/08/22 01:11:25;;;;;;;6.88;6.38;;;;;;;18.50;100.00;101354.78;6086001;23;20092;-68
2023/08/22 01:13:55;;;;;;;7.03;6.53;;;;;;;18.53;100.00;101373.13;6086900;23;20025;-68
2023/08/22 01:16:24;;;;;;;6.78;6.38;;;;;;;18.39;100.00;101359.19;6055963;23;20076;-68
2023/08/22 01:18:52;;;;;;;7.43;6.55;;;;;;;17.97;100.00;101295.00;6074753;23;20081;-68
2023/08/22 01:21:23;;;;;;;7.50;6.85;;;;;;;18.17;100.00;101339.53;6060280;23;20021;-68
2023/08/22 01:23:49;;;;;;;10.10;7.03;;;;;;;18.05;100.00;101329.81;6068941;23;20040;-68
2023/08/22 01:26:16;;;;;;;7.55;6.85;;;;;;;18.33;100.00;101381.75;6092258;23;20010;-69
2023/08/22 01:28:45;;;;;;;9.13;6.78;;;;;;;18.30;100.00;101381.97;6094349;23;20057;-70
2023/08/22 01:31:21;;;;;;;9.32;6.90;;;;;;;17.83;100.00;101314.56;6097946;23;20472;-69
2023/08/22 01:33:58;;;;;;;7.93;7.22;;;;;;;18.24;100.00;101385.06;6088388;23;20491;-69
2023/08/22 01:36:25;;;;;;;7.22;6.72;;;;;;;18.09;100.00;101371.97;6092037;23;20045;-69
2023/08/22 01:38:53;;;;;;;7.00;6.50;;;;;;;18.21;100.00;101399.44;6073632;23;20029;-69
2023/08/22 01:41:20;;;;;;;7.28;6.68;;;;;;;18.22;100.00;101401.16;6014742;23;20031;-69
2023/08/22 01:43:49;;;;;;;6.70;6.30;;;;;;;18.23;100.00;101400.19;6036631;23;20256;-69
2023/08/22 01:46:16;;;;;;;7.20;6.70;;;;;;;18.21;100.00;101390.63;6060353;23;20014;-69
2023/08/22 01:48:42;;;;;;;8.15;7.38;;;;;;;18.18;100.00;101383.75;6060302;23;20031;-70
2023/08/22 01:51:09;;;;;;;8.15;7.60;;;;;;;17.92;100.00;101348.44;6061839;23;20097;-70
2023/08/22 01:53:35;;;;;;;7.28;6.78;;;;;;;18.14;100.00;101383.13;6084927;23;20515;-68
2023/08/22 01:56:02;;;;;;;7.30;6.70;;;;;;;17.90;100.00;101358.31;6087263;23;20032;-69
2023/08/22 01:58:28;;;;;;;7.45;6.85;;;;;;;18.06;100.00;101387.28;6087524;23;20079;-68
2023/08/22 02:00:55;;;;;;;8.90;7.07;;;;;;;18.06;100.00;101381.97;6088549;23;20086;-68
2023/08/22 02:03:23;;;;;;;7.30;6.72;;;;;;;17.99;100.00;101394.84;6089064;23;20018;-68
2023/08/22 02:05:49;;;;;;;8.57;7.70;;;;;;;17.85;100.00;101363.97;6087491;23;20099;-67
2023/08/22 02:08:16;;;;;;;8.63;7.88;;;;;;;17.68;100.00;101349.25;6078495;23;20003;-68
2023/08/22 02:10:42;;;;;;;7.97;7.28;;;;;;;18.01;100.00;101405.38;6032899;23;20038;-68
2023/08/22 02:13:09;;;;;;;7.97;7.25;;;;;;;17.98;100.00;101400.25;6062581;23;20517;-68
2023/08/22 02:15:35;;;;;;;8.40;7.65;;;;;;;17.97;100.00;101401.25;6090551;23;20096;-68
2023/08/22 02:18:02;;;;;;;8.07;7.38;;;;;;;17.89;100.00;101402.63;6086536;23;20076;-69
2023/08/22 02:20:31;;;;;;;7.25;6.78;;;;;;;17.79;100.00;101392.75;6057642;23;20585;-68
2023/08/22 02:22:58;;;;;;;7.47;6.82;;;;;;;17.79;100.00;101406.88;6085984;23;20026;-68
2023/08/22 02:25:24;;;;;;;7.45;6.82;;;;;;;17.71;100.00;101398.59;6061202;23;20093;-68
2023/08/22 02:27:51;;;;;;;8.07;7.38;;;;;;;17.69;100.00;101405.84;6056525;23;20030;-68
2023/08/22 02:30:17;;;;;;;7.10;6.50;;;;;;;17.67;100.00;101405.09;6058648;23;20054;-69
2023/08/22 02:32:44;;;;;;;6.88;6.28;;;;;;;17.65;100.00;101409.66;6057093;23;20037;-68
2023/08/22 02:35:10;;;;;;;7.00;6.50;;;;;;;17.46;100.00;101376.47;6034787;23;20739;-68
2023/08/22 02:37:37;;;;;;;7.53;6.93;;;;;;;17.53;100.00;101396.28;6059690;23;20034;-67
2023/08/22 02:40:06;;;;;;;7.13;6.63;;;;;;;17.37;100.00;101369.13;6087709;23;20042;-68
2023/08/22 02:42:33;;;;;;;6.72;6.32;;;;;;;17.54;100.00;101408.63;6085328;23;20442;-68
2023/08/22 02:45:01;;;;;;;7.75;7.05;;;;;;;17.47;100.00;101402.03;6086077;23;20031;-70
2023/08/22 02:47:28;;;;;;;7.30;6.78;;;;;;;17.43;100.00;101410.31;6057216;23;20089;-68
2023/08/22 02:49:54;;;;;;;7.78;7.07;;;;;;;17.30;100.00;101384.66;6084607;23;20037;-68
2023/08/22 02:52:21;;;;;;;8.55;7.78;;;;;;;17.42;100.00;101414.78;6054992;23;20529;-68
2023/08/22 02:54:47;;;;;;;8.63;7.75;;;;;;;16.91;100.00;101341.34;6058833;23;20033;-69
2023/08/22 02:57:14;;;;;;;8.88;7.47;;;;;;;17.24;100.00;101397.47;6081921;23;20077;-69
2023/08/22 02:59:40;;;;;;;7.72;7.20;;;;;;;16.96;100.00;101351.66;6065784;23;20033;-70
2023/08/22 03:02:07;;;;;;;7.35;6.75;;;;;;;17.00;100.00;101361.09;6060291;23;20399;-68
2023/08/22 03:04:36;;;;;;;9.73;7.55;;;;;;;16.96;100.00;101354.31;6077846;23;20163;-68
2023/08/22 03:07:04;;;;;;;10.63;7.10;;;;;;;17.26;100.00;101419.44;6063120;23;20090;-68
2023/08/22 03:09:31;;;;;;;7.80;7.10;;;;;;;17.22;100.00;101418.81;6088950;23;20036;-68
2023/08/22 03:11:58;;;;;;;7.80;7.10;;;;;;;16.81;100.00;101361.50;6087337;23;20033;-68
2023/08/22 03:14:25;;;;;;;8.38;7.63;;;;;;;17.14;100.00;101426.47;6065497;23;20033;-70
2023/08/22 03:16:51;;;;;;;8.50;7.70;;;;;;;16.85;100.00;101386.00;6057675;23;20078;-68
2023/08/22 03:19:17;;;;;;;7.78;7.18;;;;;;;16.81;100.00;101380.03;6061437;23;20030;-68
2023/08/22 03:21:44;;;;;;;10.00;7.53;;;;;;;17.09;100.00;101431.22;6054699;23;20534;-68
2023/08/22 03:24:10;;;;;;;7.63;7.10;;;;;;;17.05;100.00;101435.03;6058138;23;20018;-68
2023/08/22 03:26:37;;;;;;;8.85;7.97;;;;;;;17.08;100.00;101448.09;6056175;23;20335;-67
2023/08/22 03:29:03;;;;;;;9.13;8.18;;;;;;;17.02;100.00;101419.31;6047292;23;20018;-67
2023/08/22 03:31:30;;;;;;;9.02;7.78;;;;;;;16.35;100.00;101312.41;6058483;23;20087;-68
2023/08/22 03:33:56;;;;;;;7.75;7.15;;;;;;;17.05;100.00;101437.69;6062269;23;20022;-68
2023/08/22 03:36:22;;;;;;;8.35;7.53;;;;;;;17.03;100.00;101428.97;6036001;23;20022;-68
2023/08/22 03:38:51;;;;;;;9.18;8.30;;;;;;;16.96;100.00;101423.25;6039450;23;20037;-69
2023/08/22 03:41:18;;;;;;;8.30;7.50;;;;;;;17.02;100.00;101436.09;6064659;23;20022;-68
2023/08/22 03:43:44;;;;;;;7.95;7.13;;;;;;;17.01;100.00;101430.88;6052466;23;20516;-68
2023/08/22 03:46:11;;;;;;;7.05;6.43;;;;;;;16.97;100.00;101432.88;6084111;23;20093;-68
2023/08/22 03:48:44;;;;;;;7.97;7.25;;;;;;;16.95;100.00;101432.97;6048870;23;20007;-68
2023/08/22 03:51:10;;;;;;;11.25;7.60;;;;;;;16.95;100.00;101421.53;6059234;23;20531;-68
2023/08/22 03:53:37;;;;;;;8.23;7.57;;;;;;;16.92;100.00;101433.19;6042518;23;20030;-69
2023/08/22 03:56:03;;;;;;;8.43;7.60;;;;;;;16.61;100.00;101383.16;6035422;23;20029;-67
2023/08/22 03:58:30;;;;;;;8.35;7.50;;;;;;;16.85;100.00;101421.31;6068144;23;20081;-68
2023/08/22 04:01:03;;;;;;;8.35;7.65;;;;;;;16.54;100.00;101362.38;6087199;23;20419;-68
2023/08/22 04:03:31;;;;;;;8.82;7.90;;;;;;;16.89;100.00;101419.28;6089267;23;20033;-68
2023/08/22 04:06:03;;;;;;;7.80;7.10;;;;;;;16.89;100.00;101421.94;6087559;23;20014;-68
2023/08/22 04:08:30;;;;;;;8.93;7.25;;;;;;;16.78;100.00;101408.53;6082993;23;20010;-68
2023/08/22 04:10:56;;;;;;;8.45;7.65;;;;;;;16.52;100.00;101376.69;6085496;23;20397;-68
2023/08/22 04:13:23;;;;;;;7.68;7.07;;;;;;;16.88;100.00;101430.88;6052661;23;20026;-69
2023/08/22 04:15:49;;;;;;;9.27;8.02;;;;;;;16.87;100.00;101430.00;6060812;23;20456;-68
2023/08/22 04:18:16;;;;;;;7.90;7.30;;;;;;;16.87;100.00;101429.16;6085644;23;20002;-68
2023/08/22 04:20:43;;;;;;;7.85;7.20;;;;;;;16.77;100.00;101418.28;6086649;23;20025;-67
2023/08/22 04:23:10;;;;;;;8.38;6.93;;;;;;;16.82;100.00;101425.94;6084992;23;20601;-68
2023/08/22 04:25:37;;;;;;;7.63;7.03;;;;;;;16.80;100.00;101425.16;6086859;23;20048;-68
2023/08/22 04:28:07;;;;;;;7.93;7.32;;;;;;;16.79;100.00;101418.19;6080780;23;20061;-68
2023/08/22 04:30:34;;;;;;;8.68;7.90;;;;;;;16.79;100.00;101426.97;6058565;23;20455;-68
2023/08/22 04:33:01;;;;;;;8.18;7.47;;;;;;;16.39;100.00;101370.47;6054388;23;20015;-68
2023/08/22 04:35:27;;;;;;;7.70;7.10;;;;;;;16.22;100.00;101338.00;6055753;23;20479;-67
2023/08/22 04:37:54;;;;;;;7.57;6.97;;;;;;;16.72;100.00;101436.31;6057724;23;20089;-69
2023/08/22 04:40:20;;;;;;;8.82;8.05;;;;;;;16.30;100.00;101375.44;6087146;23;20497;-68
2023/08/22 04:42:47;;;;;;;8.60;7.72;;;;;;;16.71;100.00;101440.75;6088684;23;20050;-68
2023/08/22 04:45:13;;;;;;;9.30;8.40;;;;;;;16.70;100.00;101444.34;6058021;23;20033;-68
2023/08/22 04:47:40;;;;;;;11.20;8.50;;;;;;;16.76;100.00;101448.41;6056412;23;20015;-68
2023/08/22 04:50:07;;;;;;;9.00;8.10;;;;;;;16.59;100.00;101417.69;6009671;23;20027;-69
2023/08/22 04:52:34;;;;;;;8.00;7.38;;;;;;;16.87;100.00;101451.22;6028206;23;20083;-69
2023/08/22 04:55:01;;;;;;;8.90;8.10;;;;;;;16.67;100.00;101402.13;6007629;23;20111;-67
2023/08/22 04:57:27;;;;;;;8.43;7.72;;;;;;;17.03;100.00;101452.84;6025185;23;20033;-67
2023/08/22 04:59:54;;;;;;;12.30;7.85;;;;;;;16.98;100.00;101439.91;6051108;23;20104;-68
2023/08/22 05:02:24;;;;;;;7.82;7.15;;;;;;;17.04;100.00;101442.13;6059811;23;20037;-68
2023/08/22 05:04:51;;;;;;;7.60;7.00;;;;;;;17.03;100.00;101435.13;6007087;23;20022;-68
2023/08/22 05:07:17;;;;;;;8.82;7.43;;;;;;;17.05;100.00;101438.53;6058231;23;20034;-68
2023/08/22 05:09:44;;;;;;;9.30;6.78;;;;;;;17.11;100.00;101448.72;6038980;23;20022;-68
2023/08/22 05:12:10;;;;;;;9.57;7.80;;;;;;;17.16;100.00;101437.81;6057313;23;20093;-68
2023/08/22 05:14:37;;;;;;;9.80;7.40;;;;;;;17.37;100.00;101440.78;6057310;23;20018;-68
2023/08/22 05:17:03;;;;;;;12.23;7.95;;;;;;;17.42;100.00;101436.00;6055925;23;20085;-67
2023/08/22 05:19:30;;;;;;;8.75;7.95;;;;;;;16.52;100.00;101268.88;6056401;23;20002;-67
2023/08/22 05:21:56;;;;;;;8.90;8.07;;;;;;;17.64;100.00;101410.59;6030134;23;20742;-67
2023/08/22 05:24:23;;;;;;;9.00;8.30;;;;;;;17.62;100.00;101376.22;6042108;23;20029;-68
2023/08/22 05:26:49;;;;;;;9.43;8.52;;;;;;;18.19;100.00;101435.91;6032716;23;20567;-67
2023/08/22 05:29:19;;;;;;;8.65;7.85;;;;;;;18.40;100.00;101422.88;6027495;23;20687;-67
2023/08/22 05:31:45;;;;;;;8.48;7.78;;;;;;;18.59;100.00;101413.53;6051804;23;20034;-68
2023/08/22 05:34:12;;;;;;;8.95;8.20;;;;;;;18.71;100.00;101397.50;6052572;23;20096;-67
2023/08/22 05:36:38;;;;;;;8.10;7.35;;;;;;;18.65;100.00;101358.06;6054095;23;20014;-68
2023/08/22 05:39:06;;;;;;;9.02;8.07;;;;;;;19.08;100.00;101394.72;6052433;23;20539;-70
2023/08/22 05:41:32;;;;;;;7.72;7.13;;;;;;;19.02;100.00;101367.72;6031159;23;20014;-68
2023/08/22 05:43:59;;;;;;;9.07;8.27;;;;;;;18.89;100.00;101331.44;6058508;23;20014;-67
2023/08/22 05:46:25;;;;;;;9.13;7.32;;;;;;;18.99;100.00;101352.88;6054937;23;20044;-68
2023/08/22 05:48:52;;;;;;;8.63;7.82;;;;;;;19.01;100.00;101350.94;6007594;23;20034;-67
2023/08/22 05:51:22;;;;;;;7.60;6.90;;;;;;;19.12;100.00;101364.25;6061899;23;20026;-68
2023/08/22 05:53:48;;;;;;;7.55;6.95;;;;;;;19.46;100.00;101364.25;6039323;23;20029;-68
2023/08/22 05:56:14;;;;;;;9.00;8.10;;;;;;;19.52;100.00;101313.22;6053045;23;20017;-67
2023/08/22 05:58:41;;;;;;;8.80;7.78;;;;;;;19.89;100.00;101317.41;6018956;23;20039;-68
2023/08/22 06:01:09;;;;;;;8.93;8.02;;;;;;;19.59;97.77;101227.50;6062710;23;20034;-67
2023/08/22 06:03:38;;;;;;;8.85;8.15;;;;;;;19.67;95.62;101225.06;6060563;23;20097;-67
2023/08/22 06:06:05;;;;;;;9.60;7.97;;;;;;;19.06;94.61;101127.97;6068921;23;20319;-67
2023/08/22 06:08:31;;;;;;;9.98;7.55;;;;;;;19.68;95.37;101240.88;6064859;23;20088;-68
2023/08/22 06:10:58;;;;;;;8.25;7.55;;;;;;;19.87;95.47;101255.41;6069026;23;20041;-68
2023/08/22 06:13:24;;;;;;;8.82;7.72;;;;;;;20.13;94.49;101270.06;6061109;23;20023;-67
2023/08/22 06:15:51;;;;;;;9.15;8.35;;;;;;;20.32;93.10;101256.03;6061439;23;20022;-67
2023/08/22 06:18:18;;;;;;;9.30;7.60;;;;;;;20.51;91.78;101254.47;6037566;23;20057;-67
2023/08/22 06:20:44;;;;;;;10.48;8.07;;;;;;;20.35;91.21;101201.63;6092744;23;20060;-68
2023/08/22 06:23:11;;;;;;;9.25;7.82;;;;;;;20.52;89.86;101190.31;6058368;23;20018;-67
2023/08/22 06:25:37;;;;;;;7.90;7.18;;;;;;;21.05;88.75;101232.03;6090399;23;20022;-68
2023/08/22 06:28:07;;;;;;;9.35;8.45;;;;;;;20.91;85.24;101168.34;6066229;23;20090;-68
2023/08/22 06:30:33;;;;;;;8.77;7.88;;;;;;;21.05;85.96;101189.31;6089522;23;20022;-68
2023/08/22 06:33:00;;;;;;;10.60;8.23;;;;;;;21.09;84.06;101164.03;6087774;23;20049;-68
2023/08/22 06:35:28;;;;;;;9.98;8.80;;;;;;;20.97;83.15;101142.94;6089594;23;20018;-67
2023/08/22 06:37:54;;;;;;;7.90;7.20;;;;;;;20.76;84.13;101151.03;6090426;23;20359;-67
2023/08/22 06:40:22;;;;;;;9.68;8.35;;;;;;;20.56;85.84;101166.06;6063667;23;20415;-68
2023/08/22 06:42:51;;;;;;;7.88;7.28;;;;;;;20.32;87.36;101194.72;6068306;23;20380;-68
2023/08/22 06:45:17;;;;;;;12.20;8.65;;;;;;;20.21;89.41;101213.47;6062666;23;20091;-67
2023/08/22 06:47:44;;;;;;;8.90;8.10;;;;;;;19.94;90.90;101192.63;6069150;23;20045;-68
2023/08/22 06:50:12;;;;;;;8.95;8.15;;;;;;;20.22;92.06;101241.78;6028036;23;20037;-70
2023/08/22 06:52:38;;;;;;;8.88;8.18;;;;;;;20.36;91.96;101255.78;6037931;23;20582;-68
2023/08/22 06:55:05;;;;;;;13.63;8.88;;;;;;;20.49;91.27;101246.59;6059213;23;20175;-68
2023/08/22 06:57:31;;;;;;;10.68;8.00;;;;;;;20.66;91.24;101258.50;6057876;23;20088;-68
2023/08/22 07:00:13;;;;;;;12.18;8.05;;;;;;;21.00;90.00;101270.75;6057346;23;20046;-68
2023/08/22 07:02:41;;;;;;;11.02;7.80;;;;;;;21.25;88.39;101254.28;6034985;23;20042;-68
2023/08/22 07:05:09;;;;;;;9.00;8.23;;;;;;;21.20;86.12;101184.44;6060230;23;20034;-68
2023/08/22 07:07:36;;;;;;;10.43;9.27;;;;;;;21.40;85.64;101181.78;6058987;23;20018;-68
2023/08/22 07:10:08;;;;;;;8.23;7.43;;;;;;;21.96;84.65;101221.22;6083625;23;20579;-68
2023/08/22 07:12:36;;;;;;;8.23;7.63;;;;;;;22.07;83.73;101220.19;6089696;23;20018;-68
2023/08/22 07:15:05;;;;;;;9.60;7.80;;;;;;;21.56;83.24;101128.69;6085769;23;20061;-68
2023/08/22 07:17:32;;;;;;;8.98;8.07;;;;;;;22.02;83.37;101211.78;6087850;23;20026;-67
2023/08/22 07:19:58;;;;;;;9.93;8.95;;;;;;;22.24;82.39;101208.00;6085984;23;20080;-67
2023/08/22 07:22:25;;;;;;;14.98;8.50;;;;;;;22.52;81.09;101190.19;6086309;23;20093;-67
2023/08/22 07:24:51;;;;;;;10.57;8.65;;;;;;;22.59;80.60;101185.06;6037273;23;20097;-67
2023/08/22 07:27:18;;;;;;;10.25;9.23;;;;;;;22.13;80.03;101094.03;6109388;23;20130;-67
2023/08/22 07:29:47;;;;;;;9.15;8.35;;;;;;;22.52;79.73;101162.59;6034835;23;20057;-69
2023/08/22 07:32:13;;;;;;;11.15;9.13;;;;;;;22.45;79.31;101159.63;6084758;23;20551;-66
2023/08/22 07:34:40;;;;;;;11.48;9.02;;;;;;;22.40;80.13;101167.28;6061003;23;20087;-67
2023/08/22 07:37:06;;;;;;;9.70;8.68;;;;;;;22.07;80.47;101132.88;6087655;23;20014;-67
2023/08/22 07:39:33;;;;;;;11.57;9.52;;;;;;;22.19;80.78;101167.44;6067261;23;20096;-67
2023/08/22 07:41:59;;;;;;;9.45;8.52;;;;;;;22.04;81.25;101159.88;6058982;23;20055;-67
2023/08/22 07:44:26;;;;;;;10.85;8.77;;;;;;;22.19;80.84;101176.31;6076710;23;20109;-67
2023/08/22 07:46:52;;;;;;;11.40;8.60;;;;;;;22.27;80.47;101191.63;6089741;23;20026;-67
2023/08/22 07:49:19;;;;;;;9.95;9.05;;;;;;;22.52;80.83;101210.75;6089840;23;20030;-68
2023/08/22 07:51:46;;;;;;;10.23;7.97;;;;;;;22.55;80.01;101192.56;6088641;23;20116;-68
2023/08/22 07:54:12;;;;;;;10.98;8.93;;;;;;;22.58;80.64;101210.16;6062243;23;20031;-68
2023/08/22 07:56:39;;;;;;;10.63;8.52;;;;;;;22.65;79.98;101205.88;6088933;23;20456;-67
2023/08/22 07:59:05;;;;;;;12.10;9.50;;;;;;;22.79;79.10;101210.78;6070160;23;20097;-67
2023/08/22 08:01:33;;;;;;;9.70;8.40;;;;;;;22.92;78.53;101204.25;6055852;23;20157;-68
2023/08/22 08:04:00;;;;;;;16.58;9.23;;;;;;;23.09;78.87;101220.41;6071466;23;20049;-67
2023/08/22 08:06:26;;;;;;;9.90;8.82;;;;;;;22.57;78.44;101107.66;6061650;23;20031;-70
2023/08/22 08:08:53;;;;;;;17.67;9.30;;;;;;;23.67;77.02;101213.81;6085933;23;20042;-66
2023/08/22 08:11:19;;;;;;;11.60;10.25;;;;;;;23.80;74.21;101157.16;6087304;23;20808;-68
2023/08/22 08:13:46;;;;;;;10.52;9.48;;;;;;;23.81;73.92;101156.16;6078884;23;20022;-68
2023/08/22 08:16:12;;;;;;;10.50;8.88;;;;;;;24.09;74.23;101198.94;6056622;23;20597;-67
2023/08/22 08:18:47;;;;;;;12.68;9.60;;;;;;;24.16;73.10;101173.19;6040592;23;20033;-69
2023/08/22 08:21:13;;;;;;;10.63;8.63;;;;;;;24.03;71.65;101119.13;6059379;23;20030;-68
2023/08/22 08:23:39;;;;;;;17.67;9.70;;;;;;;24.35;71.23;101136.41;6058161;23;20085;-69
2023/08/22 08:26:07;;;;;;;10.52;9.52;;;;;;;24.27;70.88;101124.63;6035595;23;20022;-68
2023/08/22 08:28:33;;;;;;;15.77;10.27;;;;;;;24.61;70.35;101147.94;6054864;23;20097;-68
2023/08/22 08:31:00;;;;;;;16.25;9.93;;;;;;;24.42;69.14;101081.94;6029707;23;20050;-69
2023/08/22 08:33:26;;;;;;;11.45;10.25;;;;;;;24.86;70.12;101175.75;6055156;23;20021;-69
2023/08/22 08:35:53;;;;;;;13.63;8.70;;;;;;;25.02;67.52;101107.00;6031729;23;20412;-69
2023/08/22 08:38:20;;;;;;;9.60;8.70;;;;;;;25.37;66.68;101122.00;6057369;23;20018;-70
2023/08/22 08:40:46;;;;;;;9.65;8.65;;;;;;;25.37;64.74;101046.78;6057986;23;20034;-68
2023/08/22 08:43:15;;;;;;;11.38;9.10;;;;;;;25.02;64.02;100996.91;6063258;23;20026;-68
2023/08/22 08:45:42;;;;;;;9.95;9.05;;;;;;;25.73;63.06;101045.56;6057970;23;20033;-69
2023/08/22 08:48:09;;;;;;;10.60;9.00;;;;;;;25.90;62.36;101040.97;6064358;23;20061;-70
2023/08/22 08:50:37;;;;;;;10.77;8.73;;;;;;;25.92;63.06;101071.25;6062649;23;20487;-70
2023/08/22 08:53:04;;;;;;;13.75;8.90;;;;;;;26.24;60.30;100986.91;6060954;23;20025;-70
2023/08/22 08:55:32;;;;;;;12.63;8.65;;;;;;;26.05;59.14;100939.78;6087862;23;20030;-69
2023/08/22 08:57:59;;;;;;;9.52;8.63;;;;;;;26.46;57.78;100947.59;6087915;23;20021;-69
2023/08/22 09:00:30;;;;;;;9.55;8.70;;;;;;;26.72;58.37;101005.69;6056810;23;20034;-69
2023/08/22 09:02:57;;;;;;;10.13;8.38;;;;;;;27.21;58.58;101051.97;6081392;23;20037;-66
2023/08/22 09:05:24;;;;;;;10.95;8.07;;;;;;;27.54;57.28;101021.19;6081363;23;20033;-68
2023/08/22 09:07:51;;;;;;;10.80;9.10;;;;;;;27.43;55.46;100950.56;6080275;23;20481;-69
2023/08/22 09:10:34;;;;;;;15.55;8.40;;;;;;;27.55;55.81;100988.69;6083691;23;20022;-68
2023/08/22 09:13:04;;;;;;;10.95;8.60;;;;;;;27.85;55.65;101004.88;6084516;23;20519;-68
2023/08/22 09:15:32;;;;;;;18.85;8.68;;;;;;;27.84;55.62;101008.56;6062057;23;20022;-69
2023/08/22 09:17:59;;;;;;;21.95;9.02;;;;;;;27.37;55.55;100936.97;6084965;23;20182;-68
2023/08/22 09:20:28;;;;;;;13.05;8.57;;;;;;;26.46;56.19;100918.00;6081838;23;20123;-68
2023/08/22 09:22:54;;;;;;;8.63;7.35;;;;;;;26.64;55.40;100915.91;6081459;23;20036;-68
2023/08/22 09:25:20;;;;;;;10.35;7.80;;;;;;;26.37;54.55;100854.50;6054095;23;20622;-68
2023/08/22 09:27:53;;;;;;;9.43;7.32;;;;;;;26.26;56.06;100961.53;6084680;23;20037;-69
2023/08/22 09:30:24;;;;;;;14.07;8.57;;;;;;;26.03;56.68;100971.41;6082677;23;20050;-68
2023/08/22 09:33:00;;;;;;;8.30;7.47;;;;;;;26.40;56.42;101012.91;6085159;23;20028;-73
2023/08/22 09:35:32;;;;;;;7.85;7.25;;;;;;;26.66;53.86;100900.41;6110110;23;20010;-69
2023/08/22 09:38:06;;;;;;;8.73;7.32;;;;;;;27.33;53.52;100995.81;6111366;23;20040;-69
2023/08/22 09:40:33;;;;;;;8.10;6.82;;;;;;;27.62;51.69;100919.53;6110581;23;20041;-69
2023/08/22 09:43:01;;;;;;;7.40;6.80;;;;;;;27.56;51.72;100931.03;6110109;23;20164;-68
2023/08/22 09:45:31;;;;;;;8.52;7.70;;;;;;;27.73;51.67;100953.25;6081904;23;20123;-69
2023/08/22 09:48:00;;;;;;;7.85;7.20;;;;;;;27.41;51.49;100898.69;6112341;23;20025;-68
2023/08/22 09:50:35;;;;;;;7.63;7.10;;;;;;;27.45;50.83;100885.69;6114040;23;20064;-69
2023/08/22 09:53:03;;;;;;;7.40;6.90;;;;;;;27.29;51.50;100878.63;6116978;23;20040;-69
2023/08/22 09:55:31;;;;;;;7.47;6.70;;;;;;;28.24;50.72;101004.59;6116576;23;20129;-69
2023/08/22 09:57:59;;;;;;;9.25;7.00;;;;;;;28.22;49.06;100901.38;6113856;23;20075;-69
2023/08/22 10:00:30;;;;;;;7.78;6.80;;;;;;;28.53;48.99;100951.56;6111069;23;20037;-67
2023/08/22 10:02:59;;;;;;;8.38;7.22;;;;;;;28.48;47.62;100842.44;6107271;23;20629;-68
2023/08/22 10:05:27;;;;;;;7.85;6.88;;;;;;;27.64;47.19;100753.00;6092605;23;20617;-67
2023/08/22 10:07:53;;;;;;;7.70;7.00;;;;;;;28.12;47.40;100844.19;6116693;23;20394;-68
2023/08/22 10:10:25;;;;;;;7.53;6.93;;;;;;;27.90;47.83;100837.91;6117657;23;20108;-67
2023/08/22 10:12:54;;;;;;;7.90;7.22;;;;;;;28.47;47.99;100929.88;6117339;23;20150;-67
2023/08/22 10:15:21;;;;;;;11.55;7.28;;;;;;;28.96;48.07;101029.91;6117939;23;20278;-68
2023/08/22 10:17:49;;;;;;;7.72;7.20;;;;;;;28.73;47.57;100984.19;6085858;23;20041;-67
2023/08/22 10:20:16;;;;;;;7.32;6.82;;;;;;;29.19;47.50;100988.38;6089459;23;20095;-68
2023/08/22 10:22:43;;;;;;;8.35;7.50;;;;;;;29.33;46.03;101006.34;6094093;23;20057;-67
2023/08/22 10:25:09;;;;;;;7.30;6.80;;;;;;;28.80;46.29;100905.91;6113241;23;20013;-69
2023/08/22 10:27:40;;;;;;;7.20;6.60;;;;;;;29.03;46.85;100992.16;6072580;23;20033;-67
2023/08/22 10:30:12;;;;;;;7.53;6.97;;;;;;;28.75;45.89;100909.19;6088041;23;20037;-67
2023/08/22 10:32:40;;;;;;;6.97;6.57;;;;;;;29.23;46.79;100992.34;6119509;23;20115;-67
2023/08/22 10:35:23;;;;;;;8.00;7.30;;;;;;;29.15;45.97;100957.34;6117165;23;20017;-66
2023/08/22 10:37:54;;;;;;;7.53;6.82;;;;;;;28.73;47.16;101018.47;6093274;23;20017;-69
2023/08/22 10:40:30;;;;;;;8.57;7.28;;;;;;;28.73;47.28;101005.78;6119862;23;20021;-69
2023/08/22 10:43:36;;;;;;;8.10;7.32;;;;;;;28.27;48.70;101032.22;6113164;23;20033;-69
2023/08/22 10:46:02;;;;;;;7.32;6.70;;;;;;;28.45;49.85;101098.28;6113970;23;20350;-69
2023/08/22 10:48:32;;;;;;;6.88;6.40;;;;;;;28.57;49.90;101116.75;6114781;23;20005;-68
2023/08/22 10:51:06;;;;;;;7.78;6.93;;;;;;;28.45;49.48;101076.69;6116589;23;20086;-68
2023/08/22 10:53:43;;;;;;;9.30;6.95;;;;;;;28.54;50.31;101115.25;6111611;23;20022;-69
2023/08/22 10:56:28;;;;;;;8.35;7.65;;;;;;;28.13;49.40;101005.06;6114862;23;20032;-68
2023/08/22 10:59:00;;;;;;;7.53;7.00;;;;;;;27.92;49.78;101000.41;6090794;23;20362;-68
2023/08/22 11:01:26;;;;;;;8.88;6.97;;;;;;;28.19;49.79;101035.88;6111661;23;20054;-68
2023/08/22 11:03:55;;;;;;;11.38;7.30;;;;;;;28.30;49.43;101034.53;6115161;23;20098;-68
2023/08/22 11:06:22;;;;;;;9.07;7.00;;;;;;;28.48;48.91;101064.66;6119787;23;20096;-68
2023/08/22 11:08:50;;;;;;;8.35;7.55;;;;;;;28.80;48.53;101079.59;6111698;23;20096;-68
2023/08/22 11:11:19;;;;;;;9.63;7.05;;;;;;;29.19;47.63;101080.25;6092624;23;20490;-68
2023/08/22 11:13:46;;;;;;;8.27;7.30;;;;;;;29.67;45.93;101042.59;6115694;23;20590;-67
2023/08/22 11:16:15;;;;;;;8.57;6.95;;;;;;;29.82;45.89;101021.69;6088484;23;20705;-66
2023/08/22 11:18:45;;;;;;;7.45;6.85;;;;;;;29.22;46.03;101005.00;6088710;23;20018;-67
2023/08/22 11:21:13;;;;;;;7.22;6.53;;;;;;;29.01;47.60;101035.56;6089468;23;20089;-67
2023/08/22 11:23:40;;;;;;;8.07;7.25;;;;;;;29.17;47.22;101063.41;6087469;23;20021;-67